Time;durP1;ratioP1;P1;durP2;ratioP2;P2;SDS_P1;SDS_P2;PMS_P1;PMS_P2;Temp;Humidity;BMP_temperature;BMP_pressure;BME280_temperature;BME280_humidity;BME280_pressure;Samples;Min_cycle;Max_cycle;Signal;HPM_P1;HPM_P2
2021/03/11 00:00:13;;;;;;;8.38;5.88;;;;;;;-1.29;78.86;93744.38;5086013;28;20040;-77
2021/03/11 00:02:39;;;;;;;8.10;4.78;;;;;;;-1.35;78.47;93747.94;5070698;28;20439;-78
2021/03/11 00:05:07;;;;;;;10.15;5.28;;;;;;;-1.41;78.57;93754.91;5052558;28;20032;-77
2021/03/11 00:07:33;;;;;;;7.43;4.70;;;;;;;-1.38;78.75;93761.47;5051772;28;20577;-77
2021/03/11 00:09:58;;;;;;;8.65;4.55;;;;;;;-1.36;78.90;93762.03;5070309;28;20040;-77
2021/03/11 00:12:24;;;;;;;7.88;4.93;;;;;;;-1.38;78.27;93757.06;5052393;28;20085;-77
2021/03/11 00:14:49;;;;;;;8.30;4.82;;;;;;;-1.37;78.14;93763.09;5052162;28;20431;-77
2021/03/11 00:17:15;;;;;;;8.85;4.47;;;;;;;-1.40;77.79;93756.50;5069644;28;20031;-77
2021/03/11 00:19:40;;;;;;;8.82;5.18;;;;;;;-1.35;78.40;93753.16;5084944;28;20037;-77
2021/03/11 00:22:06;;;;;;;6.30;4.60;;;;;;;-1.36;77.81;93759.41;5051320;28;20496;-77
2021/03/11 00:24:31;;;;;;;6.53;3.65;;;;;;;-1.30;77.38;93756.66;5070022;28;20047;-77
2021/03/11 00:26:56;;;;;;;6.95;3.95;;;;;;;-1.21;77.49;93760.41;5069878;28;20040;-77
2021/03/11 00:29:22;;;;;;;7.75;4.38;;;;;;;-1.24;76.61;93758.31;5052152;28;20388;-78
2021/03/11 00:31:48;;;;;;;8.27;3.40;;;;;;;-1.26;76.46;93760.38;5051576;28;20428;-78
2021/03/11 00:34:13;;;;;;;7.43;4.50;;;;;;;-1.20;76.22;93758.63;5070032;28;20036;-77
2021/03/11 00:36:39;;;;;;;11.35;4.38;;;;;;;-1.24;75.90;93754.91;5085322;28;20028;-77
2021/03/11 00:39:06;;;;;;;7.40;4.20;;;;;;;-1.26;76.41;93757.75;5069835;28;20495;-77
2021/03/11 00:41:31;;;;;;;8.40;4.38;;;;;;;-1.23;76.24;93756.47;5051972;28;20090;-77
2021/03/11 00:43:57;;;;;;;7.47;4.00;;;;;;;-1.30;76.18;93751.44;5051624;28;20036;-77
2021/03/11 00:46:22;;;;;;;9.32;4.25;;;;;;;-1.26;76.33;93759.59;5051672;28;20040;-77
2021/03/11 00:48:48;;;;;;;6.55;3.70;;;;;;;-1.23;76.20;93759.09;5052104;28;20122;-77
2021/03/11 00:51:14;;;;;;;7.60;4.68;;;;;;;-1.20;76.43;93756.00;5051586;28;20098;-77
2021/03/11 00:53:39;;;;;;;5.75;3.35;;;;;;;-1.28;75.94;93765.03;5051970;28;20115;-77
2021/03/11 00:56:05;;;;;;;6.43;3.97;;;;;;;-1.31;76.25;93767.34;5069733;28;20036;-78
2021/03/11 00:58:31;;;;;;;11.05;4.25;;;;;;;-1.30;75.79;93764.50;5051682;28;20032;-77
2021/03/11 01:00:56;;;;;;;8.20;3.60;;;;;;;-1.34;76.26;93762.59;5051222;28;20384;-77
2021/03/11 01:03:21;;;;;;;8.40;4.15;;;;;;;-1.42;75.92;93755.97;5052047;28;20491;-79
2021/03/11 01:05:47;;;;;;;8.20;4.70;;;;;;;-1.44;76.38;93761.44;5052695;28;20025;-79
2021/03/11 01:08:13;;;;;;;6.50;4.03;;;;;;;-1.50;76.57;93749.31;5070327;28;20041;-78
2021/03/11 01:10:38;;;;;;;6.80;4.15;;;;;;;-1.51;76.35;93755.56;5085686;28;20056;-78
2021/03/11 01:13:04;;;;;;;6.70;4.07;;;;;;;-1.48;76.82;93749.09;5052065;28;20125;-78
2021/03/11 01:15:35;;;;;;;8.20;4.55;;;;;;;-1.58;76.54;93751.56;5051328;28;20032;-78
2021/03/11 01:18:00;;;;;;;7.28;4.35;;;;;;;-1.55;76.66;93748.44;5051981;28;20024;-79
2021/03/11 01:20:26;;;;;;;9.07;4.28;;;;;;;-1.63;77.11;93747.03;5051578;28;20044;-79
2021/03/11 01:22:51;;;;;;;7.00;3.85;;;;;;;-1.57;77.47;93747.91;5084347;28;20033;-79
2021/03/11 01:25:17;;;;;;;10.93;4.75;;;;;;;-1.54;76.87;93753.44;5050918;28;20029;-79
2021/03/11 01:27:42;;;;;;;6.25;3.95;;;;;;;-1.51;76.79;93760.78;5068881;28;20037;-79
2021/03/11 01:30:09;;;;;;;8.55;4.50;;;;;;;-1.50;76.94;93759.00;5084197;28;20561;-78
2021/03/11 01:32:34;;;;;;;7.80;4.60;;;;;;;-1.44;76.66;93750.97;5050212;28;20488;-78
2021/03/11 01:35:00;;;;;;;9.07;4.57;;;;;;;-1.47;76.15;93768.97;5050092;28;20112;-78
2021/03/11 01:37:25;;;;;;;7.68;4.88;;;;;;;-1.38;76.13;93762.28;5067867;28;20349;-78
2021/03/11 01:39:52;;;;;;;7.55;4.22;;;;;;;-1.37;75.84;93763.09;5050041;28;20036;-78
2021/03/11 01:42:17;;;;;;;6.05;4.15;;;;;;;-1.34;76.00;93765.19;5049750;28;20488;-78
2021/03/11 01:44:42;;;;;;;6.07;3.78;;;;;;;-1.31;75.39;93768.13;5083137;28;20124;-79
2021/03/11 01:47:08;;;;;;;8.15;4.78;;;;;;;-1.25;75.74;93763.75;5049877;28;20116;-78
2021/03/11 01:49:33;;;;;;;7.70;3.85;;;;;;;-1.32;75.21;93770.97;5083332;28;20067;-78
2021/03/11 01:52:00;;;;;;;6.65;4.10;;;;;;;-1.36;75.33;93772.50;5050010;28;20494;-78
2021/03/11 01:54:26;;;;;;;5.75;3.55;;;;;;;-1.36;75.54;93780.34;5049514;28;20401;-78
2021/03/11 01:56:51;;;;;;;7.55;4.20;;;;;;;-1.35;74.60;93774.88;5049967;28;20088;-78
2021/03/11 01:59:17;;;;;;;8.30;4.45;;;;;;;-1.32;75.11;93776.22;5049703;28;20036;-78
2021/03/11 02:01:42;;;;;;;6.82;4.05;;;;;;;-1.49;75.90;93768.41;5068420;28;20025;-78
2021/03/11 02:04:09;;;;;;;7.00;3.97;;;;;;;-1.51;75.65;93766.03;5069181;28;20383;-78
2021/03/11 02:06:34;;;;;;;10.23;4.85;;;;;;;-1.46;75.72;93760.88;5084623;28;20054;-78
2021/03/11 02:09:00;;;;;;;7.93;4.22;;;;;;;-1.42;75.46;93763.81;5050957;28;20041;-78
2021/03/11 02:11:27;;;;;;;9.43;4.40;;;;;;;-1.39;75.62;93762.53;5068557;28;20412;-78
2021/03/11 02:14:14;;;;;;;6.75;4.07;;;;;;;-1.28;75.24;93748.56;5069324;28;20509;-78
2021/03/11 02:16:54;;;;;;;5.93;4.05;;;;;;;-1.27;75.02;93760.59;5068889;28;20415;-78
2021/03/11 02:19:59;;;;;;;6.47;4.00;;;;;;;-1.35;74.98;93750.56;5068647;28;20094;-78
2021/03/11 02:22:43;;;;;;;7.03;3.80;;;;;;;-1.32;74.07;93763.94;5050366;28;20179;-78
2021/03/11 02:25:33;;;;;;;9.73;4.28;;;;;;;-1.23;74.30;93772.16;5051040;28;20093;-78
2021/03/11 02:28:17;;;;;;;6.47;3.85;;;;;;;-1.32;73.61;93769.19;5086467;28;20033;-78
2021/03/11 02:30:44;;;;;;;6.80;4.20;;;;;;;-1.31;74.59;93775.19;5087697;28;20032;-78
2021/03/11 02:33:11;;;;;;;5.63;3.30;;;;;;;-1.27;74.28;93779.69;5054248;28;20491;-78
2021/03/11 02:35:39;;;;;;;5.95;3.97;;;;;;;-1.26;74.37;93778.66;5054007;28;20052;-78
2021/03/11 02:38:06;;;;;;;6.93;3.70;;;;;;;-1.37;74.18;93778.78;5054305;28;20068;-79
2021/03/11 02:40:34;;;;;;;5.85;3.50;;;;;;;-1.33;74.28;93782.47;5087646;28;20059;-79
2021/03/11 02:43:03;;;;;;;6.18;3.53;;;;;;;-1.36;74.29;93783.75;5055957;28;20047;-75
2021/03/11 02:45:32;;;;;;;7.30;3.80;;;;;;;-1.33;74.42;93779.88;5055140;28;20024;-74
2021/03/11 02:48:02;;;;;;;6.07;3.72;;;;;;;-1.31;74.14;93790.88;5055303;28;20033;-73
2021/03/11 02:50:30;;;;;;;7.75;3.85;;;;;;;-1.23;74.17;93793.88;5055069;28;20043;-74
2021/03/11 02:52:56;;;;;;;6.78;3.45;;;;;;;-1.22;73.91;93799.91;5055353;28;20028;-74
2021/03/11 02:55:23;;;;;;;6.72;3.42;;;;;;;-1.13;74.16;93808.91;5055024;28;20598;-74
2021/03/11 02:57:50;;;;;;;8.20;4.13;;;;;;;-1.05;74.11;93800.66;5055345;28;20037;-74
2021/03/11 03:00:16;;;;;;;5.82;3.13;;;;;;;-1.02;73.04;93812.44;5055017;28;20431;-74
2021/03/11 03:02:44;;;;;;;6.38;3.40;;;;;;;-1.02;72.81;93820.28;5072955;28;20033;-74
2021/03/11 03:05:17;;;;;;;6.30;3.05;;;;;;;-1.01;72.58;93819.28;5073134;28;20054;-74
2021/03/11 03:07:45;;;;;;;7.38;4.03;;;;;;;-1.09;72.87;93814.47;5074811;28;20544;-74
2021/03/11 03:10:11;;;;;;;6.20;3.67;;;;;;;-1.30;73.20;93811.56;5055291;28;20036;-75
2021/03/11 03:12:38;;;;;;;9.07;3.53;;;;;;;-1.21;73.06;93810.09;5055159;28;20412;-75
2021/03/11 03:15:05;;;;;;;5.00;2.70;;;;;;;-1.13;72.35;93813.34;5055076;28;20043;-75
2021/03/11 03:17:32;;;;;;;3.15;1.73;;;;;;;-1.02;69.61;93813.25;5073040;28;20067;-75
2021/03/11 03:19:58;;;;;;;2.90;1.45;;;;;;;-0.88;67.68;93816.28;5054280;28;20032;-74
2021/03/11 03:22:24;;;;;;;3.15;1.40;;;;;;;-0.73;67.57;93818.31;5087803;28;20044;-74
2021/03/11 03:24:50;;;;;;;2.30;1.30;;;;;;;-0.58;67.43;93819.53;5072262;28;20501;-74
2021/03/11 03:27:18;;;;;;;2.03;0.93;;;;;;;-0.44;66.92;93823.38;5072094;28;20033;-74
2021/03/11 03:29:43;;;;;;;2.20;1.02;;;;;;;-0.27;65.01;93813.59;5072140;28;20029;-74
2021/03/11 03:32:09;;;;;;;2.00;1.10;;;;;;;-0.18;65.71;93824.44;5054263;28;20039;-74
2021/03/11 03:34:35;;;;;;;1.58;0.90;;;;;;;-0.06;66.43;93821.66;5053976;28;20029;-75
2021/03/11 03:37:00;;;;;;;1.77;0.80;;;;;;;-0.21;61.18;93824.91;5087436;28;20517;-74
2021/03/11 03:39:27;;;;;;;0.77;0.70;;;;;;;-0.35;61.45;93808.78;5071613;28;20033;-74
2021/03/11 03:41:55;;;;;;;1.15;0.70;;;;;;;-0.51;61.70;93826.19;5071467;28;20032;-78
2021/03/11 03:44:25;;;;;;;0.93;0.65;;;;;;;-0.46;62.81;93817.59;5068211;28;20426;-78
2021/03/11 03:46:52;;;;;;;1.52;1.05;;;;;;;-0.39;62.41;93820.78;5063731;28;20045;-77
2021/03/11 03:49:18;;;;;;;3.03;1.33;;;;;;;-0.34;62.59;93830.56;5081988;28;20036;-77
2021/03/11 03:51:49;;;;;;;2.40;1.08;;;;;;;-0.27;61.22;93824.06;5082021;28;20119;-77
2021/03/11 03:54:21;;;;;;;6.50;2.60;;;;;;;-0.24;64.93;93823.59;5098057;28;20036;-77
2021/03/11 03:57:06;;;;;;;3.58;2.30;;;;;;;-0.25;64.93;93826.44;5095851;28;20028;-77
2021/03/11 03:59:36;;;;;;;6.68;4.10;;;;;;;-0.37;67.41;93837.03;5061883;28;20063;-77
2021/03/11 04:02:05;;;;;;;11.27;4.40;;;;;;;-0.48;68.68;93843.22;5062269;28;20047;-77
2021/03/11 04:04:38;;;;;;;6.00;3.00;;;;;;;-0.93;68.88;93828.53;5081351;28;20073;-78
2021/03/11 04:07:07;;;;;;;4.50;2.33;;;;;;;-0.92;67.32;93830.09;5088465;28;20026;-78
2021/03/11 04:09:34;;;;;;;4.75;2.40;;;;;;;-0.82;66.76;93840.72;5070884;28;20036;-79
2021/03/11 04:12:00;;;;;;;5.80;3.78;;;;;;;-0.79;69.31;93850.72;5052338;28;20424;-79
2021/03/11 04:14:27;;;;;;;10.02;3.97;;;;;;;-0.82;69.74;93845.94;5052057;28;20090;-78
2021/03/11 04:16:54;;;;;;;5.80;3.30;;;;;;;-0.92;70.19;93843.97;5085837;28;20123;-78
2021/03/11 04:19:21;;;;;;;7.90;2.83;;;;;;;-1.27;69.32;93844.28;5052425;28;20043;-78
2021/03/11 04:21:47;;;;;;;3.35;1.77;;;;;;;-1.24;67.53;93841.19;5052453;28;20419;-78
2021/03/11 04:24:13;;;;;;;2.95;1.08;;;;;;;-1.24;64.71;93849.84;5052035;28;20035;-78
2021/03/11 04:26:39;;;;;;;2.42;0.98;;;;;;;-1.24;64.00;93855.06;5070043;28;20035;-77
2021/03/11 04:29:06;;;;;;;5.18;2.42;;;;;;;-1.13;67.29;93871.69;5070094;28;20032;-77
2021/03/11 04:31:33;;;;;;;3.38;1.88;;;;;;;-1.21;65.78;93864.25;5069426;28;20028;-77
2021/03/11 04:34:00;;;;;;;4.57;1.63;;;;;;;-1.16;65.44;93856.50;5051350;28;20024;-81
2021/03/11 04:36:26;;;;;;;3.63;1.90;;;;;;;-1.15;66.10;93863.28;5051594;28;20060;-77
2021/03/11 04:38:53;;;;;;;2.78;1.63;;;;;;;-1.15;65.63;93859.88;5069723;28;20071;-74
2021/03/11 04:41:20;;;;;;;5.28;1.42;;;;;;;-1.08;65.28;93866.53;5069282;28;20033;-73
2021/03/11 04:43:45;;;;;;;3.40;1.27;;;;;;;-1.06;66.05;93874.94;5069379;28;20037;-74
2021/03/11 04:46:12;;;;;;;2.67;1.52;;;;;;;-1.24;67.26;93885.66;5069391;28;20101;-73
2021/03/11 04:48:38;;;;;;;4.25;1.70;;;;;;;-1.32;67.21;93879.00;5069551;28;20090;-73
2021/03/11 04:51:05;;;;;;;3.10;1.70;;;;;;;-1.34;67.77;93880.25;5068791;28;20496;-74
2021/03/11 04:53:36;;;;;;;2.60;1.27;;;;;;;-1.35;66.19;93884.69;5069473;28;20032;-74
2021/03/11 04:56:05;;;;;;;3.88;2.03;;;;;;;-1.52;67.00;93894.38;5051844;28;20071;-73
2021/03/11 04:58:30;;;;;;;3.88;1.65;;;;;;;-1.53;65.90;93893.56;5083241;28;20040;-74
2021/03/11 05:00:57;;;;;;;3.95;2.35;;;;;;;-1.57;67.25;93894.28;5069094;28;20051;-74
2021/03/11 05:03:23;;;;;;;4.63;2.03;;;;;;;-1.54;67.90;93894.59;5084836;28;20043;-75
2021/03/11 05:05:48;;;;;;;4.30;1.95;;;;;;;-1.52;68.49;93903.00;5069478;28;20376;-74
2021/03/11 05:08:14;;;;;;;5.38;2.40;;;;;;;-1.50;68.01;93903.56;5065848;28;20053;-75
2021/03/11 05:10:40;;;;;;;4.80;2.10;;;;;;;-1.56;68.29;93909.72;5051254;28;20035;-75
2021/03/11 05:13:06;;;;;;;3.90;2.00;;;;;;;-1.51;67.70;93901.94;5051677;28;20471;-74
2021/03/11 05:15:32;;;;;;;4.88;2.22;;;;;;;-1.46;67.84;93917.75;5051682;28;20120;-74
2021/03/11 05:17:58;;;;;;;6.43;2.47;;;;;;;-1.45;68.52;93913.28;5052026;28;20048;-74
2021/03/11 05:20:25;;;;;;;5.65;2.28;;;;;;;-1.46;68.17;93907.28;5051699;28;20044;-75
2021/03/11 05:22:51;;;;;;;5.55;2.30;;;;;;;-1.46;68.90;93915.13;5049192;28;20044;-74
2021/03/11 05:25:17;;;;;;;5.82;2.53;;;;;;;-1.40;68.55;93916.00;5051618;28;20032;-75
2021/03/11 05:27:42;;;;;;;4.15;2.17;;;;;;;-1.58;68.46;93922.25;5051477;28;20035;-74
2021/03/11 05:30:11;;;;;;;3.45;2.38;;;;;;;-1.68;69.03;93924.69;5052487;28;20055;-80
2021/03/11 05:32:36;;;;;;;3.58;2.03;;;;;;;-1.65;69.12;93925.00;5086038;28;20029;-80
2021/03/11 05:35:03;;;;;;;4.35;2.22;;;;;;;-1.64;68.86;93925.78;5052189;28;20059;-80
2021/03/11 05:37:29;;;;;;;5.63;2.22;;;;;;;-1.55;69.35;93929.59;5070078;28;20093;-80
2021/03/11 05:39:54;;;;;;;7.88;4.70;;;;;;;-1.50;69.93;93929.69;5051627;28;20657;-80
2021/03/11 05:42:20;;;;;;;4.90;2.75;;;;;;;-1.58;68.79;93927.47;5051495;28;20089;-81
2021/03/11 05:44:47;;;;;;;5.20;2.10;;;;;;;-1.74;69.50;93938.69;5051860;28;20036;-80
2021/03/11 05:47:15;;;;;;;4.85;2.13;;;;;;;-1.83;69.55;93939.06;5052099;28;20078;-81
2021/03/11 05:49:41;;;;;;;3.67;2.28;;;;;;;-1.74;69.56;93946.53;5052141;28;20127;-80
2021/03/11 05:52:12;;;;;;;4.97;2.17;;;;;;;-1.79;69.31;93943.81;5052242;28;20480;-81
2021/03/11 05:54:38;;;;;;;5.35;2.47;;;;;;;-1.73;68.83;93955.94;5069915;28;20095;-81
2021/03/11 05:57:05;;;;;;;2.95;2.00;;;;;;;-1.82;70.01;93961.53;5052025;28;20459;-81
2021/03/11 05:59:32;;;;;;;4.72;1.95;;;;;;;-1.87;69.91;93971.13;5051973;28;20033;-81
2021/03/11 06:02:04;;;;;;;3.85;1.92;;;;;;;-1.82;69.28;93964.16;5054142;28;20043;-81
2021/03/11 06:04:34;;;;;;;;;;;;;;;-1.80;69.11;93969.16;5055718;28;20488;-80
2021/03/11 06:07:01;;;;;;;5.25;1.38;;;;;;;-1.83;71.09;93974.84;5073158;28;19913;-80
2021/03/11 06:09:27;;;;;;;3.00;1.40;;;;;;;-1.82;68.25;93982.44;5073463;28;20056;-80
2021/03/11 06:11:53;;;;;;;2.28;1.17;;;;;;;-1.73;68.59;93982.88;5055051;28;20185;-80
2021/03/11 06:14:19;;;;;;;3.88;1.65;;;;;;;-1.74;68.70;93989.13;5073510;28;20032;-81
2021/03/11 06:16:58;;;;;;;2.60;1.42;;;;;;;-1.79;69.06;93994.28;5091078;28;20104;-80
2021/03/11 06:19:24;;;;;;;3.70;1.65;;;;;;;-1.90;68.46;93988.03;5054991;28;20029;-81
2021/03/11 06:21:51;;;;;;;5.85;1.85;;;;;;;-1.90;67.42;93998.50;5054773;28;20087;-80
2021/03/11 06:24:17;;;;;;;4.90;2.50;;;;;;;-1.74;68.68;94011.84;5055113;28;20508;-81
2021/03/11 06:26:42;;;;;;;3.85;2.05;;;;;;;-1.71;68.60;94012.19;5057166;28;20055;-81
2021/03/11 06:29:07;;;;;;;3.47;1.45;;;;;;;-1.70;68.64;94021.59;5056143;28;20064;-81
2021/03/11 06:31:34;;;;;;;4.82;2.22;;;;;;;-1.58;69.39;94032.03;5055536;28;20032;-81
2021/03/11 06:34:02;;;;;;;15.40;7.32;;;;;;;-1.56;68.52;94029.97;5072879;28;20066;-81
2021/03/11 06:36:33;;;;;;;3.45;2.05;;;;;;;-1.45;68.05;94031.72;5055031;28;20567;-81
2021/03/11 06:38:59;;;;;;;3.45;1.42;;;;;;;-1.45;69.35;94039.56;5072454;28;20039;-81
2021/03/11 06:41:24;;;;;;;8.13;3.40;;;;;;;-1.35;68.69;94044.19;5054723;28;20040;-81
2021/03/11 06:44:01;;;;;;;10.07;4.80;;;;;;;-1.21;69.00;94057.78;5087905;28;20032;-81
2021/03/11 06:46:28;;;;;;;6.35;2.70;;;;;;;-1.25;68.20;94057.47;5054400;28;20060;-80
2021/03/11 06:49:11;;;;;;;9.70;4.18;;;;;;;-1.16;67.92;94059.69;5054139;28;20063;-80
2021/03/11 06:51:37;;;;;;;5.50;2.85;;;;;;;-1.12;69.04;94066.84;5072436;28;20066;-81
2021/03/11 06:54:03;;;;;;;7.93;2.42;;;;;;;-1.16;68.55;94064.94;5054208;28;20060;-81
2021/03/11 06:56:29;;;;;;;3.63;2.10;;;;;;;-1.27;67.21;94077.03;5072443;28;20496;-81
2021/03/11 06:58:59;;;;;;;9.38;3.88;;;;;;;-1.21;68.33;94078.72;5054367;28;20043;-80
2021/03/11 07:01:27;;;;;;;7.47;3.35;;;;;;;-1.11;68.78;94093.81;5087603;28;20559;-81
2021/03/11 07:03:52;;;;;;;17.23;6.72;;;;;;;-1.03;67.38;94096.03;5053817;28;20068;-80
2021/03/11 07:06:28;;;;;;;11.38;4.72;;;;;;;-0.97;68.13;94089.88;5054020;28;20086;-81
2021/03/11 07:08:54;;;;;;;9.07;3.13;;;;;;;-0.89;67.06;94078.22;5087924;28;20201;-80
2021/03/11 07:11:20;;;;;;;7.95;3.80;;;;;;;-0.84;67.76;94083.53;5053636;28;20024;-80
2021/03/11 07:13:46;;;;;;;13.43;3.58;;;;;;;-0.68;67.82;94076.72;5057110;28;20040;-80
2021/03/11 07:16:20;;;;;;;4.13;2.60;;;;;;;-0.58;65.59;94073.50;5075930;28;20028;-80
2021/03/11 07:18:47;;;;;;;6.25;2.45;;;;;;;-0.55;64.72;94070.38;5058477;28;20028;-81
2021/03/11 07:21:13;;;;;;;5.47;2.70;;;;;;;-0.38;65.55;94081.66;5057304;28;20511;-81
2021/03/11 07:23:46;;;;;;;4.55;2.13;;;;;;;-0.27;65.09;94079.97;5075425;28;20048;-81
2021/03/11 07:26:12;;;;;;;4.78;2.53;;;;;;;-0.21;64.69;94103.38;5057603;28;20127;-80
2021/03/11 07:28:38;;;;;;;11.95;4.32;;;;;;;-0.13;64.77;94110.06;5057314;28;20024;-81
2021/03/11 07:31:04;;;;;;;17.00;5.25;;;;;;;-0.18;64.20;94106.56;5056367;28;20043;-81
2021/03/11 07:33:31;;;;;;;6.25;3.08;;;;;;;-0.16;64.53;94107.09;5057512;28;20377;-81
2021/03/11 07:35:59;;;;;;;35.70;8.15;;;;;;;-0.06;64.76;94110.69;5057353;28;20044;-80
2021/03/11 07:38:27;;;;;;;26.30;6.95;;;;;;;-0.06;63.91;94104.63;5057220;28;20470;-81
2021/03/11 07:40:58;;;;;;;39.55;9.02;;;;;;;0.05;63.56;94102.97;5057165;28;20059;-80
2021/03/11 07:43:25;;;;;;;34.87;9.27;;;;;;;0.24;63.03;94111.34;5056173;28;20020;-81
2021/03/11 07:45:54;;;;;;;18.52;6.15;;;;;;;0.36;61.69;94114.66;5056355;28;20318;-80
2021/03/11 07:48:20;;;;;;;9.60;4.45;;;;;;;0.32;62.02;94121.41;5055428;28;20040;-81
2021/03/11 07:50:46;;;;;;;9.60;3.42;;;;;;;0.33;63.54;94129.03;5054878;28;20479;-81
2021/03/11 07:53:12;;;;;;;11.40;4.78;;;;;;;0.32;62.17;94113.53;5056122;28;20073;-81
2021/03/11 07:55:38;;;;;;;16.40;6.25;;;;;;;0.21;62.73;94135.44;5056474;28;20555;-81
2021/03/11 07:58:06;;;;;;;16.50;5.97;;;;;;;0.28;63.22;94143.91;5056250;28;20458;-81
2021/03/11 08:00:32;;;;;;;24.98;5.55;;;;;;;0.30;62.45;94133.97;5056237;28;20032;-81
2021/03/11 08:03:23;;;;;;;10.80;3.03;;;;;;;0.30;64.03;94132.13;5089908;28;20055;-81
2021/03/11 08:05:49;;;;;;;42.88;7.25;;;;;;;0.18;64.01;94142.75;5055733;28;20071;-81
2021/03/11 08:08:16;;;;;;;20.83;7.28;;;;;;;0.18;65.00;94142.75;5055916;28;20124;-81
2021/03/11 08:11:04;;;;;;;10.95;3.55;;;;;;;0.14;64.09;94162.63;5074078;28;20079;-81
2021/03/11 08:13:36;;;;;;;12.00;4.95;;;;;;;0.06;64.66;94163.03;5056039;28;20499;-81
2021/03/11 08:16:17;;;;;;;14.20;4.25;;;;;;;0.17;65.01;94172.59;5056364;28;20063;-81
2021/03/11 08:18:44;;;;;;;5.85;2.95;;;;;;;0.25;63.82;94168.78;5055281;28;20432;-81
2021/03/11 08:21:25;;;;;;;9.75;3.50;;;;;;;0.27;63.49;94164.09;5055210;28;20033;-81
2021/03/11 08:23:52;;;;;;;8.10;3.78;;;;;;;0.30;63.73;94171.47;5053613;28;20509;-81
2021/03/11 08:26:43;;;;;;;6.75;3.50;;;;;;;0.37;63.69;94161.63;5054809;28;20494;-81
2021/03/11 08:29:17;;;;;;;10.52;3.53;;;;;;;0.54;62.06;94164.19;5055049;28;20093;-81
2021/03/11 08:31:43;;;;;;;11.35;5.00;;;;;;;0.69;61.94;94173.28;5055023;28;20123;-81
2021/03/11 08:34:29;;;;;;;9.02;4.70;;;;;;;0.75;62.22;94170.50;5055516;28;20033;-81
2021/03/11 08:36:54;;;;;;;7.57;3.90;;;;;;;0.67;62.46;94175.34;5073102;28;20502;-81
2021/03/11 08:39:31;;;;;;;5.60;2.92;;;;;;;0.52;62.01;94179.38;5054949;28;20032;-81
2021/03/11 08:41:59;;;;;;;5.88;3.03;;;;;;;0.54;63.72;94172.06;5088709;28;20131;-81
2021/03/11 08:44:44;;;;;;;6.70;3.05;;;;;;;0.46;62.72;94185.59;5055383;28;20458;-81
2021/03/11 08:47:11;;;;;;;6.93;3.60;;;;;;;0.44;63.19;94182.41;5051599;28;20044;-81
2021/03/11 08:49:38;;;;;;;7.68;3.95;;;;;;;0.44;63.16;94179.78;5088318;28;20438;-81
2021/03/11 08:52:05;;;;;;;7.78;3.83;;;;;;;0.51;62.13;94175.19;5054962;28;20433;-81
2021/03/11 08:54:30;;;;;;;7.32;3.85;;;;;;;0.62;61.83;94181.34;5054925;28;20028;-81
2021/03/11 08:56:56;;;;;;;10.35;4.60;;;;;;;0.74;61.45;94179.41;5055717;28;20599;-81
2021/03/11 08:59:46;;;;;;;7.88;4.43;;;;;;;0.91;60.59;94175.91;5089657;28;20035;-81
2021/03/11 09:02:32;;;;;;;8.32;4.93;;;;;;;1.05;60.03;94181.59;5084607;28;20052;-81
2021/03/11 09:04:58;;;;;;;10.80;5.45;;;;;;;1.15;60.36;94176.47;5056171;28;20474;-81
2021/03/11 09:07:35;;;;;;;10.50;4.55;;;;;;;1.23;60.41;94183.91;5056269;28;20044;-81
2021/03/11 09:10:01;;;;;;;24.15;10.10;;;;;;;1.46;60.18;94192.53;5056022;28;20043;-81
2021/03/11 09:12:29;;;;;;;11.95;5.72;;;;;;;1.52;59.08;94196.78;5055923;28;20024;-81
2021/03/11 09:15:00;;;;;;;11.43;5.80;;;;;;;1.45;59.75;94198.84;5073254;28;20040;-80
2021/03/11 09:17:31;;;;;;;7.07;4.13;;;;;;;1.45;58.92;94190.97;5054150;28;20491;-81
2021/03/11 09:20:02;;;;;;;10.55;4.85;;;;;;;1.62;59.73;94196.91;5052835;28;20033;-81
2021/03/11 09:22:38;;;;;;;7.78;4.05;;;;;;;1.78;58.48;94201.25;5052040;28;20025;-81
2021/03/11 09:25:13;;;;;;;11.15;4.63;;;;;;;1.86;58.74;94205.25;5052175;28;20041;-81
2021/03/11 09:27:41;;;;;;;8.55;4.38;;;;;;;1.94;59.58;94207.44;5053296;28;20040;-81
2021/03/11 09:54:57;;;;;;;14.27;5.65;;;;;;;1.03;62.34;94230.94;5107681;27;20354;-74
2021/03/11 09:57:23;;;;;;;15.18;6.13;;;;;;;0.97;63.69;94230.06;5106184;28;20030;-74
2021/03/11 09:59:48;;;;;;;14.20;6.40;;;;;;;0.88;63.17;94224.44;5106566;28;20024;-74
2021/03/11 10:02:14;;;;;;;9.43;5.50;;;;;;;0.90;62.96;94226.84;5107248;28;20024;-73
2021/03/11 10:04:39;;;;;;;39.35;7.70;;;;;;;0.89;63.49;94243.59;5105935;28;20517;-74
2021/03/11 10:07:13;;;;;;;33.85;11.13;;;;;;;0.98;63.60;94244.78;5107375;28;20031;-74
2021/03/11 10:09:43;;;;;;;23.30;8.57;;;;;;;1.10;63.89;94236.78;5107338;28;20056;-74
2021/03/11 10:12:09;;;;;;;11.40;6.47;;;;;;;1.09;63.94;94243.88;5107414;28;20031;-75
2021/03/11 10:14:35;;;;;;;12.10;4.65;;;;;;;0.92;63.89;94249.16;5105831;28;20387;-74
2021/03/11 10:17:03;;;;;;;10.15;5.88;;;;;;;0.95;64.76;94248.66;5107399;28;20035;-74
2021/03/11 10:19:29;;;;;;;18.63;10.38;;;;;;;1.00;63.66;94256.63;5105744;28;20095;-74
2021/03/11 10:21:57;;;;;;;10.27;6.10;;;;;;;1.13;62.91;94254.69;5105872;28;20493;-74
2021/03/11 10:24:45;;;;;;;10.25;5.22;;;;;;;1.15;61.06;94245.50;5105671;28;20044;-74
2021/03/11 10:27:29;;;;;;;12.73;7.15;;;;;;;1.18;62.18;94252.09;5105832;28;20507;-74
2021/03/11 10:30:03;;;;;;;10.45;5.38;;;;;;;1.31;61.55;94258.84;5107045;28;20020;-74
2021/03/11 10:32:29;;;;;;;9.65;5.60;;;;;;;1.21;62.05;94254.25;5105354;28;20118;-75
2021/03/11 10:34:55;;;;;;;12.80;5.75;;;;;;;1.14;61.40;94269.38;5105637;28;20161;-74
2021/03/11 10:37:31;;;;;;;11.13;5.85;;;;;;;1.13;62.01;94280.94;5105400;28;20028;-74
2021/03/11 10:40:08;;;;;;;9.90;5.90;;;;;;;1.05;62.60;94286.59;5100167;28;20380;-74
2021/03/11 10:42:43;;;;;;;13.15;6.65;;;;;;;0.97;63.81;94295.69;5105141;28;20406;-75
2021/03/11 10:45:11;;;;;;;15.60;7.22;;;;;;;0.94;61.80;94299.59;5105566;28;20078;-74
2021/03/11 10:47:37;;;;;;;11.80;6.03;;;;;;;0.93;62.41;94290.13;5105218;28;20015;-75
2021/03/11 10:50:15;;;;;;;11.75;6.30;;;;;;;0.74;62.79;94292.22;5104834;28;20019;-75
2021/03/11 10:52:48;;;;;;;14.40;7.22;;;;;;;0.65;63.48;94296.28;5103751;28;20043;-75
2021/03/11 10:55:37;;;;;;;13.00;7.05;;;;;;;0.65;64.31;94304.16;5093986;28;20024;-75
2021/03/11 10:58:04;;;;;;;15.02;8.02;;;;;;;0.70;63.73;94300.81;5091957;28;20020;-74
2021/03/11 11:00:36;;;;;;;17.00;6.93;;;;;;;0.64;63.31;94288.66;5091240;28;20030;-74
2021/03/11 11:03:05;;;;;;;11.80;5.88;;;;;;;0.64;63.77;94307.03;5091584;28;20490;-74
2021/03/11 11:05:31;;;;;;;11.35;5.97;;;;;;;0.60;64.11;94302.25;5092821;28;20028;-74
2021/03/11 11:07:57;;;;;;;14.75;6.43;;;;;;;0.55;63.94;94301.38;5091546;28;20051;-75
2021/03/11 11:10:26;;;;;;;20.15;8.02;;;;;;;0.48;65.01;94308.63;5090969;28;20032;-75
2021/03/11 11:12:51;;;;;;;21.02;8.82;;;;;;;0.56;66.14;94310.84;5091364;28;20035;-75
2021/03/11 11:15:17;;;;;;;14.25;6.80;;;;;;;0.63;63.75;94305.44;5091153;28;20032;-76
2021/03/11 11:17:43;;;;;;;16.52;7.15;;;;;;;0.45;65.07;94306.47;5092436;28;20020;-75
2021/03/11 11:20:12;;;;;;;22.80;7.93;;;;;;;0.48;66.39;94296.28;5091145;28;20100;-75
2021/03/11 11:22:38;;;;;;;11.75;6.63;;;;;;;0.49;66.26;94294.47;5090360;28;20024;-75
2021/03/11 11:25:04;;;;;;;7.50;4.82;;;;;;;0.42;66.30;94301.72;5092252;28;20028;-75
2021/03/11 11:27:30;;;;;;;11.38;5.32;;;;;;;0.35;66.22;94296.63;5090544;28;20051;-74
2021/03/11 11:29:56;;;;;;;11.75;6.15;;;;;;;0.33;66.10;94306.56;5092225;28;20055;-74
2021/03/11 11:32:23;;;;;;;25.77;9.80;;;;;;;0.37;66.46;94307.66;5091228;28;20028;-73
2021/03/11 11:34:52;;;;;;;19.58;7.85;;;;;;;0.37;66.02;94299.81;5091472;28;20030;-73
2021/03/11 11:37:19;;;;;;;28.17;8.07;;;;;;;0.48;67.21;94298.13;5091095;28;20027;-73
2021/03/11 11:39:45;;;;;;;14.50;8.38;;;;;;;0.58;66.69;94287.78;5090774;28;20024;-73
2021/03/11 11:42:12;;;;;;;13.93;6.57;;;;;;;0.61;66.86;94287.28;5090505;28;20042;-73
2021/03/11 11:44:39;;;;;;;10.93;6.00;;;;;;;0.71;66.37;94279.59;5090399;28;20076;-73
2021/03/11 11:47:04;;;;;;;14.25;6.53;;;;;;;0.77;65.76;94281.25;5090311;28;20475;-73
2021/03/11 11:49:30;;;;;;;12.25;6.15;;;;;;;0.84;65.38;94283.72;5090614;28;20077;-73
2021/03/11 11:51:55;;;;;;;9.20;4.82;;;;;;;1.02;64.50;94274.75;5090305;28;20024;-72
2021/03/11 11:54:21;;;;;;;8.18;4.72;;;;;;;1.19;64.76;94277.34;5090176;28;20044;-73
2021/03/11 11:56:46;;;;;;;11.30;5.95;;;;;;;1.34;65.05;94269.66;5090354;28;20478;-73
2021/03/11 11:59:12;;;;;;;10.90;5.93;;;;;;;1.54;64.75;94270.91;5090000;28;20115;-73
2021/03/11 12:01:37;;;;;;;7.63;4.53;;;;;;;1.84;61.98;94272.28;5090155;28;20478;-72
2021/03/11 12:04:03;;;;;;;13.20;6.18;;;;;;;1.99;61.78;94256.63;5091115;28;20020;-76